Time;durP1;ratioP1;P1;durP2;ratioP2;P2;SDS_P1;SDS_P2;PMS_P1;PMS_P2;Temp;Humidity;BMP_temperature;BMP_pressure;BME280_temperature;BME280_humidity;BME280_pressure;Samples;Min_cycle;Max_cycle;Signal;HPM_P1;HPM_P2
2020/12/23 00:01:59;;;;;;;4.57;4.18;;;16.50;44.70;;;;;;5024233;28;20173;-73
2020/12/23 00:04:25;;;;;;;3.80;3.47;;;16.40;43.70;;;;;;5014919;28;20033;-74
2020/12/23 00:06:52;;;;;;;5.07;3.63;;;16.40;45.40;;;;;;5012738;28;20022;-74
2020/12/23 00:09:18;;;;;;;5.55;3.42;;;16.40;46.10;;;;;;5031598;28;20030;-74
2020/12/23 00:11:45;;;;;;;5.53;3.33;;;16.40;45.90;;;;;;5035631;28;20078;-73
2020/12/23 00:14:11;;;;;;;5.45;3.38;;;16.40;44.80;;;;;;5020869;28;20108;-74
2020/12/23 00:16:41;;;;;;;6.38;3.95;;;16.20;44.90;;;;;;5034591;28;20048;-73
2020/12/23 00:19:07;;;;;;;7.68;3.47;;;16.10;44.40;;;;;;5014624;28;20052;-74
2020/12/23 00:21:34;;;;;;;4.43;3.90;;;16.20;45.50;;;;;;5034680;28;20115;-74
2020/12/23 00:24:00;;;;;;;4.75;3.28;;;16.10;44.10;;;;;;5031718;28;20017;-74
2020/12/23 00:26:27;;;;;;;3.45;2.88;;;16.10;46.40;;;;;;5030522;28;20474;-74
2020/12/23 00:28:53;;;;;;;4.03;3.28;;;16.20;46.10;;;;;;5038834;28;20025;-73
2020/12/23 00:31:19;;;;;;;3.80;2.90;;;16.20;46.60;;;;;;5034061;28;20037;-73
2020/12/23 00:33:46;;;;;;;3.50;3.20;;;16.20;46.70;;;;;;5034603;28;20033;-73
2020/12/23 00:36:15;;;;;;;4.25;3.60;;;16.20;46.80;;;;;;5030747;28;20017;-73
2020/12/23 00:38:43;;;;;;;4.95;2.65;;;16.10;46.90;;;;;;5037677;28;20498;-73
2020/12/23 00:41:10;;;;;;;11.50;3.03;;;16.10;47.40;;;;;;5028097;28;20030;-73
2020/12/23 00:43:36;;;;;;;5.32;2.92;;;16.00;47.40;;;;;;5035053;28;20032;-73
2020/12/23 00:46:04;;;;;;;5.90;3.30;;;15.80;47.60;;;;;;5034039;28;20026;-73
2020/12/23 00:48:31;;;;;;;4.95;3.20;;;15.70;47.50;;;;;;5031016;28;20025;-74
2020/12/23 00:50:57;;;;;;;3.55;3.03;;;15.50;47.90;;;;;;5027695;28;20040;-73
2020/12/23 00:53:23;;;;;;;4.72;3.42;;;15.30;48.10;;;;;;5029994;28;20030;-73
2020/12/23 00:55:53;;;;;;;5.65;3.92;;;15.10;48.30;;;;;;5025186;28;20439;-74
2020/12/23 00:58:19;;;;;;;9.13;5.45;;;15.00;48.50;;;;;;5026279;28;20029;-74
2020/12/23 01:00:45;;;;;;;5.72;4.18;;;14.80;48.50;;;;;;5027223;28;20018;-73
2020/12/23 01:03:12;;;;;;;7.53;4.55;;;14.70;48.60;;;;;;5027232;28;20453;-74
2020/12/23 01:05:38;;;;;;;6.85;5.70;;;14.50;48.80;;;;;;5027426;28;20458;-74
2020/12/23 01:08:04;;;;;;;8.20;6.10;;;14.30;49.00;;;;;;5025483;28;20080;-73
2020/12/23 01:10:31;;;;;;;7.82;5.47;;;14.20;49.80;;;;;;5029094;28;20030;-74
2020/12/23 01:12:57;;;;;;;8.55;5.13;;;14.00;49.20;;;;;;5030885;28;20363;-74
2020/12/23 01:15:24;;;;;;;6.82;4.70;;;13.80;49.50;;;;;;5025896;28;20032;-74
2020/12/23 01:17:50;;;;;;;5.38;4.68;;;13.70;49.20;;;;;;5023686;28;20168;-74
2020/12/23 01:20:16;;;;;;;10.25;5.47;;;13.60;49.90;;;;;;5022135;28;20467;-74
2020/12/23 01:22:43;;;;;;;8.88;5.75;;;13.60;49.70;;;;;;5024852;28;20036;-73
2020/12/23 01:25:09;;;;;;;8.75;5.15;;;13.60;49.30;;;;;;5030661;28;20041;-74
2020/12/23 01:27:36;;;;;;;10.13;4.95;;;13.50;49.20;;;;;;5035213;28;20363;-74
2020/12/23 01:30:03;;;;;;;5.97;5.15;;;13.40;49.30;;;;;;5032480;28;20029;-77
2020/12/23 01:32:29;;;;;;;9.55;5.35;;;13.10;49.80;;;;;;5027605;28;20052;-74
2020/12/23 01:34:56;;;;;;;14.02;5.40;;;13.00;50.00;;;;;;5025821;28;20378;-72
2020/12/23 01:37:22;;;;;;;8.23;5.30;;;12.90;50.20;;;;;;5025112;28;20096;-73
2020/12/23 01:39:49;;;;;;;8.23;4.50;;;13.00;50.30;;;;;;5007747;28;20459;-73
2020/12/23 01:42:15;;;;;;;12.93;5.55;;;12.80;50.20;;;;;;5032969;28;20483;-72
2020/12/23 01:44:41;;;;;;;8.07;5.45;;;12.70;50.40;;;;;;5025605;28;20096;-73
2020/12/23 01:47:14;;;;;;;6.53;4.72;;;12.50;51.00;;;;;;5029082;28;20509;-74
2020/12/23 01:49:41;;;;;;;6.25;5.15;;;12.40;50.70;;;;;;5027728;28;20049;-74
2020/12/23 01:52:08;;;;;;;7.40;5.22;;;12.30;51.30;;;;;;5026454;28;20014;-73
2020/12/23 01:54:34;;;;;;;13.10;5.90;;;12.20;51.20;;;;;;5024380;28;20021;-73
2020/12/23 01:57:02;;;;;;;5.13;4.22;;;12.20;51.40;;;;;;5033048;28;20030;-74
2020/12/23 01:59:28;;;;;;;9.02;4.88;;;12.30;51.50;;;;;;5028350;28;20058;-74
2020/12/23 02:02:21;;;;;;;4.50;3.67;;;12.30;51.00;;;;;;5021161;28;20024;-73
2020/12/23 02:04:48;;;;;;;6.72;3.60;;;12.20;51.30;;;;;;5014979;28;20019;-73
2020/12/23 02:07:14;;;;;;;4.97;4.40;;;12.10;51.10;;;;;;5007404;28;20034;-74
2020/12/23 02:09:42;;;;;;;6.05;4.43;;;12.10;51.40;;;;;;5009605;28;20022;-74
2020/12/23 02:12:09;;;;;;;5.35;3.70;;;11.90;51.40;;;;;;5020920;28;20451;-74
2020/12/23 02:14:36;;;;;;;4.72;3.42;;;11.80;51.90;;;;;;5015441;28;20034;-74
2020/12/23 02:17:02;;;;;;;8.65;4.90;;;11.70;51.90;;;;;;5008218;28;20034;-75
2020/12/23 02:19:28;;;;;;;4.75;4.35;;;11.70;52.20;;;;;;5014002;28;20030;-74
2020/12/23 02:21:56;;;;;;;4.13;3.25;;;11.70;52.00;;;;;;5014711;28;20100;-73
2020/12/23 02:24:22;;;;;;;9.15;3.97;;;11.70;52.10;;;;;;5021220;28;20026;-73
2020/12/23 02:26:49;;;;;;;5.38;3.63;;;11.60;52.10;;;;;;5018085;28;20239;-73
2020/12/23 02:29:15;;;;;;;4.28;3.97;;;11.50;52.50;;;;;;5017355;28;20037;-74
2020/12/23 02:31:41;;;;;;;5.55;4.20;;;11.60;52.50;;;;;;5018324;28;20486;-73
2020/12/23 02:34:08;;;;;;;5.85;4.70;;;11.60;52.80;;;;;;5021257;28;20021;-72
2020/12/23 02:36:34;;;;;;;4.15;3.25;;;11.50;52.70;;;;;;5011287;28;20022;-74
2020/12/23 02:39:01;;;;;;;4.97;4.30;;;11.50;53.60;;;;;;5010682;28;20111;-73
2020/12/23 02:41:27;;;;;;;6.28;5.68;;;11.30;53.20;;;;;;5010883;28;20148;-73
2020/12/23 02:43:53;;;;;;;10.05;6.07;;;11.10;53.50;;;;;;5017106;28;20018;-74
2020/12/23 02:46:20;;;;;;;8.23;5.22;;;11.00;53.90;;;;;;5013459;28;20022;-73
2020/12/23 02:48:47;;;;;;;4.70;3.75;;;11.00;53.90;;;;;;5010329;28;20044;-74
2020/12/23 02:51:13;;;;;;;6.97;3.92;;;11.00;53.60;;;;;;5014487;28;20030;-73
2020/12/23 02:53:40;;;;;;;4.25;3.88;;;11.00;53.50;;;;;;5014384;28;20018;-73
2020/12/23 02:56:06;;;;;;;6.45;4.25;;;11.00;53.80;;;;;;5014674;28;20038;-73
2020/12/23 02:58:32;;;;;;;10.38;3.42;;;11.00;53.70;;;;;;5010387;28;20029;-73
2020/12/23 03:00:59;;;;;;;5.88;4.07;;;11.00;53.50;;;;;;5016277;28;20053;-73
2020/12/23 03:03:25;;;;;;;5.93;3.88;;;11.00;53.80;;;;;;5017028;28;20025;-73
2020/12/23 03:05:51;;;;;;;5.07;4.65;;;11.00;53.70;;;;;;5009620;28;20029;-73
2020/12/23 03:08:18;;;;;;;4.22;3.90;;;11.10;53.60;;;;;;5014346;28;20041;-74
2020/12/23 03:10:44;;;;;;;14.88;8.77;;;11.00;53.50;;;;;;5011618;28;20112;-73
2020/12/23 03:13:10;;;;;;;6.55;4.60;;;11.00;53.80;;;;;;5019863;28;20034;-74
2020/12/23 03:15:37;;;;;;;6.25;4.13;;;10.90;53.80;;;;;;5015801;28;20522;-75
2020/12/23 03:18:03;;;;;;;3.95;3.65;;;10.80;54.20;;;;;;5013174;28;20032;-74
2020/12/23 03:20:29;;;;;;;6.30;4.00;;;10.60;54.80;;;;;;5015552;28;20037;-74
2020/12/23 03:22:56;;;;;;;5.32;3.50;;;10.50;54.70;;;;;;5015402;28;20052;-74
2020/12/23 03:25:22;;;;;;;4.68;4.25;;;10.40;54.70;;;;;;5012093;28;20062;-75
2020/12/23 03:27:48;;;;;;;8.18;3.60;;;10.50;54.80;;;;;;5014696;28;20036;-74
2020/12/23 03:30:15;;;;;;;4.63;4.20;;;10.70;55.00;;;;;;5012357;28;20052;-74
2020/12/23 03:32:41;;;;;;;6.22;3.92;;;10.70;54.50;;;;;;5016206;28;20030;-75
2020/12/23 03:35:08;;;;;;;5.47;4.95;;;10.50;55.10;;;;;;5014443;28;20041;-74
2020/12/23 03:37:34;;;;;;;6.22;4.30;;;10.40;54.70;;;;;;5012452;28;20075;-73
2020/12/23 03:40:00;;;;;;;11.02;4.68;;;10.40;55.00;;;;;;5013266;28;20037;-74
2020/12/23 03:42:27;;;;;;;7.57;3.92;;;10.40;55.70;;;;;;5013329;28;20026;-73
2020/12/23 03:44:53;;;;;;;6.18;5.57;;;10.50;55.10;;;;;;5005898;28;20060;-73
2020/12/23 03:47:19;;;;;;;7.15;5.03;;;10.50;56.30;;;;;;5003908;28;20049;-73
2020/12/23 03:49:46;;;;;;;7.10;4.53;;;10.50;56.20;;;;;;5011258;28;20018;-73
2020/12/23 03:52:12;;;;;;;5.18;4.20;;;10.60;56.50;;;;;;5012968;28;20420;-73
2020/12/23 03:54:38;;;;;;;9.07;4.82;;;10.60;56.00;;;;;;5015063;28;20109;-72
2020/12/23 03:57:05;;;;;;;12.77;5.22;;;10.60;56.20;;;;;;5009507;28;20041;-73
2020/12/23 03:59:31;;;;;;;9.52;4.47;;;10.60;56.00;;;;;;5009496;28;20026;-73
2020/12/23 04:01:57;;;;;;;7.93;3.90;;;10.70;56.90;;;;;;5016769;28;20428;-73
2020/12/23 04:04:24;;;;;;;9.38;4.80;;;10.70;56.60;;;;;;5010367;28;20026;-73
2020/12/23 04:06:50;;;;;;;4.82;4.25;;;10.70;56.40;;;;;;5012380;28;20080;-73
2020/12/23 04:09:17;;;;;;;5.72;4.45;;;10.50;56.00;;;;;;5019925;28;20485;-73
2020/12/23 04:11:43;;;;;;;5.63;4.80;;;10.40;56.40;;;;;;5014612;28;20030;-73
2020/12/23 04:14:09;;;;;;;5.93;5.30;;;10.50;57.30;;;;;;5014975;28;20036;-74
2020/12/23 04:16:36;;;;;;;8.73;5.78;;;10.50;57.10;;;;;;5012235;28;20030;-73
2020/12/23 04:19:02;;;;;;;6.82;5.32;;;10.60;56.90;;;;;;5015228;28;20029;-74
2020/12/23 04:21:29;;;;;;;10.55;4.75;;;10.60;56.80;;;;;;5015769;28;20524;-73
2020/12/23 04:23:55;;;;;;;7.70;4.80;;;10.40;56.70;;;;;;5014036;28;20352;-73
2020/12/23 04:26:21;;;;;;;6.15;4.93;;;10.40;57.10;;;;;;5028034;28;20052;-73
2020/12/23 04:28:48;;;;;;;6.05;4.57;;;10.30;57.10;;;;;;5011764;28;20026;-73
2020/12/23 04:31:14;;;;;;;8.90;4.38;;;10.20;57.20;;;;;;5018326;28;20117;-74
2020/12/23 04:33:40;;;;;;;6.05;4.68;;;10.20;57.80;;;;;;5007557;28;20034;-73
2020/12/23 04:36:07;;;;;;;9.40;4.63;;;10.30;57.80;;;;;;5011066;28;20025;-74
2020/12/23 04:38:33;;;;;;;12.80;4.85;;;10.30;57.80;;;;;;5014038;28;20026;-75
2020/12/23 04:41:01;;;;;;;8.43;4.28;;;10.20;57.50;;;;;;5014034;28;20026;-74
2020/12/23 04:43:27;;;;;;;8.40;4.68;;;10.10;57.50;;;;;;5013992;28;20033;-73
2020/12/23 04:45:53;;;;;;;9.15;5.70;;;10.10;58.90;;;;;;5010936;28;20025;-73
2020/12/23 04:48:34;;;;;;;9.95;6.00;;;10.00;58.30;;;;;;5009417;28;20093;-73
2020/12/23 04:51:04;;;;;;;6.70;4.78;;;10.20;58.50;;;;;;5005821;28;20038;-73
2020/12/23 04:53:31;;;;;;;7.05;5.13;;;10.10;58.00;;;;;;5010384;28;20026;-73
2020/12/23 04:55:57;;;;;;;8.95;6.40;;;10.10;58.70;;;;;;5014211;28;20044;-73
2020/12/23 04:58:24;;;;;;;7.07;5.05;;;10.00;58.50;;;;;;5014601;28;20064;-73
2020/12/23 05:00:50;;;;;;;7.28;5.38;;;10.00;58.80;;;;;;5007865;28;20033;-74
2020/12/23 05:03:17;;;;;;;15.15;6.45;;;10.00;59.00;;;;;;5006899;28;20060;-73
2020/12/23 05:05:43;;;;;;;8.98;6.47;;;10.10;58.90;;;;;;5011703;28;20478;-73
2020/12/23 05:08:10;;;;;;;7.88;6.07;;;10.10;58.90;;;;;;5013791;28;20038;-72
2020/12/23 05:10:37;;;;;;;7.72;4.38;;;10.00;58.90;;;;;;5011900;28;20029;-74
2020/12/23 05:13:05;;;;;;;8.27;5.38;;;9.90;59.10;;;;;;5005966;28;20467;-74
2020/12/23 05:15:31;;;;;;;10.63;5.20;;;10.00;59.30;;;;;;5012611;28;20049;-73
2020/12/23 05:18:03;;;;;;;7.45;5.93;;;9.90;59.10;;;;;;5012788;28;20076;-73
2020/12/23 05:20:30;;;;;;;;;;;9.80;59.50;;;;;;5010031;28;20388;-73
2020/12/23 05:22:57;;;;;;;7.38;5.25;;;9.80;59.30;;;;;;4996686;28;20302;-73
2020/12/23 05:25:24;;;;;;;8.73;5.78;;;9.70;59.00;;;;;;5010076;28;20063;-73
2020/12/23 05:27:50;;;;;;;6.97;5.28;;;9.60;59.50;;;;;;5000706;28;20092;-73
2020/12/23 05:30:20;;;;;;;10.50;5.53;;;9.50;59.30;;;;;;5011648;28;20120;-72
2020/12/23 05:32:47;;;;;;;6.95;5.97;;;9.40;59.40;;;;;;5009976;28;20030;-73
2020/12/23 05:35:15;;;;;;;6.50;5.65;;;9.20;59.90;;;;;;5004823;28;20030;-74
2020/12/23 05:37:42;;;;;;;6.22;4.90;;;9.10;60.00;;;;;;5010764;28;20018;-74
2020/12/23 05:40:09;;;;;;;9.70;6.18;;;9.00;59.80;;;;;;5012810;28;20031;-74
2020/12/23 05:42:38;;;;;;;10.48;5.57;;;9.00;59.60;;;;;;5017970;28;20042;-74
2020/12/23 05:45:07;;;;;;;7.90;4.60;;;9.00;59.40;;;;;;5014761;28;20333;-73
2020/12/23 05:47:34;;;;;;;10.02;4.78;;;8.80;60.20;;;;;;5030218;28;20033;-72
2020/12/23 05:50:01;;;;;;;5.60;5.03;;;8.70;60.40;;;;;;5017790;28;20034;-72
2020/12/23 05:52:28;;;;;;;9.68;5.22;;;8.70;60.50;;;;;;5029521;28;20104;-73
2020/12/23 05:54:55;;;;;;;4.85;4.22;;;8.50;61.30;;;;;;5021739;28;20034;-73
2020/12/23 05:57:21;;;;;;;8.38;5.05;;;8.50;60.80;;;;;;5019888;28;20414;-73
2020/12/23 05:59:47;;;;;;;6.20;4.35;;;8.70;59.80;;;;;;5023361;28;20045;-72
2020/12/23 06:02:16;;;;;;;8.10;4.75;;;8.60;60.50;;;;;;5028854;28;20022;-74
2020/12/23 06:04:45;;;;;;;7.88;4.90;;;8.50;60.70;;;;;;5030674;28;20049;-74
2020/12/23 06:07:12;;;;;;;5.40;4.00;;;8.50;60.20;;;;;;5029171;28;20042;-73
2020/12/23 06:09:47;;;;;;;5.20;3.78;;;8.50;60.00;;;;;;5014216;28;20121;-72
2020/12/23 06:12:19;;;;;;;5.95;4.30;;;8.50;60.00;;;;;;5011051;28;20472;-73
2020/12/23 06:14:56;;;;;;;5.00;3.45;;;8.60;59.50;;;;;;5016973;28;20048;-73
2020/12/23 06:17:26;;;;;;;5.18;4.30;;;8.60;59.00;;;;;;5013935;28;20026;-73
2020/12/23 06:19:57;;;;;;;4.15;3.75;;;8.60;59.10;;;;;;5015362;28;20049;-73
2020/12/23 06:22:30;;;;;;;5.10;3.38;;;8.70;58.90;;;;;;5015176;28;20108;-72
2020/12/23 06:25:00;;;;;;;6.65;3.65;;;8.70;58.60;;;;;;5034269;28;20084;-73
2020/12/23 06:27:32;;;;;;;3.30;3.00;;;8.70;58.40;;;;;;5022489;28;20363;-73
2020/12/23 06:29:58;;;;;;;;;;;8.70;58.90;;;;;;5017390;28;20323;-73
2020/12/23 06:32:25;;;;;;;3.90;3.17;;;8.60;58.70;;;;;;5016125;28;19910;-73
2020/12/23 06:34:57;;;;;;;4.18;3.20;;;8.50;58.50;;;;;;5025799;28;20018;-73
2020/12/23 06:37:26;;;;;;;3.95;3.65;;;8.50;58.70;;;;;;5023508;28;20030;-73
2020/12/23 06:39:53;;;;;;;4.00;2.65;;;8.50;59.20;;;;;;5027748;28;20064;-74
2020/12/23 06:42:20;;;;;;;8.48;2.72;;;8.40;58.60;;;;;;5017860;28;20348;-73
2020/12/23 06:44:46;;;;;;;6.75;2.90;;;8.40;57.80;;;;;;5017558;28;20025;-74
2020/12/23 06:47:20;;;;;;;4.13;2.63;;;8.30;58.10;;;;;;5013853;28;20030;-74
2020/12/23 06:49:54;;;;;;;4.47;2.72;;;8.30;58.10;;;;;;5015297;28;20030;-73
2020/12/23 06:52:27;;;;;;;3.33;2.60;;;8.40;57.80;;;;;;5014574;28;20451;-74
2020/12/23 06:55:03;;;;;;;3.45;2.78;;;8.50;57.00;;;;;;5011442;28;20121;-73
2020/12/23 06:57:38;;;;;;;4.03;3.63;;;8.40;57.30;;;;;;5012254;28;20022;-73
2020/12/23 07:00:06;;;;;;;2.88;2.15;;;8.40;57.30;;;;;;5016653;28;20096;-73
2020/12/23 07:02:34;;;;;;;4.22;2.65;;;8.40;57.10;;;;;;5013182;28;20360;-74
2020/12/23 07:05:00;;;;;;;2.92;2.72;;;8.50;56.70;;;;;;5007965;28;20057;-73
2020/12/23 07:07:40;;;;;;;4.20;2.42;;;8.50;57.00;;;;;;5007498;28;20088;-75
2020/12/23 07:10:19;;;;;;;3.20;2.90;;;8.50;56.90;;;;;;5011726;28;20026;-73
2020/12/23 07:12:49;;;;;;;3.60;2.97;;;8.50;56.70;;;;;;5013038;28;20037;-74
2020/12/23 07:15:23;;;;;;;8.95;2.70;;;8.40;56.70;;;;;;5013702;28;20459;-73
2020/12/23 07:17:56;;;;;;;3.17;2.72;;;8.40;56.90;;;;;;5013228;28;20029;-73
2020/12/23 07:20:23;;;;;;;;;;;8.30;56.70;;;;;;5017820;28;20052;-73
2020/12/23 07:22:52;;;;;;;4.72;2.72;;;8.30;57.10;;;;;;5025461;28;19918;-73
2020/12/23 07:25:24;;;;;;;2.33;2.22;;;8.30;56.70;;;;;;5013889;28;20460;-73
2020/12/23 07:27:56;;;;;;;2.95;2.63;;;8.20;56.30;;;;;;5020093;28;20030;-73
2020/12/23 07:30:24;;;;;;;5.07;2.63;;;8.00;57.50;;;;;;5013645;28;20022;-72
2020/12/23 07:33:23;;;;;;;2.45;2.22;;;8.00;57.30;;;;;;5014529;28;20088;-72
2020/12/23 07:35:54;;;;;;;3.75;2.83;;;7.90;57.40;;;;;;5004297;28;20049;-73
2020/12/23 07:38:23;;;;;;;2.97;2.42;;;7.90;57.30;;;;;;5020855;28;20405;-72
2020/12/23 07:40:52;;;;;;;2.53;2.17;;;7.90;57.40;;;;;;5022386;28;20506;-73
2020/12/23 07:43:20;;;;;;;1.80;1.70;;;7.90;57.20;;;;;;5020843;28;20026;-73
2020/12/23 07:45:47;;;;;;;3.38;2.83;;;7.80;57.50;;;;;;5012222;28;20119;-73
2020/12/23 07:48:22;;;;;;;6.18;2.40;;;7.70;57.70;;;;;;5016258;28;20026;-77
2020/12/23 07:50:53;;;;;;;2.40;2.15;;;7.70;57.50;;;;;;5017083;28;20052;-75
2020/12/23 07:53:24;;;;;;;4.80;2.33;;;7.60;57.80;;;;;;5021667;28;20030;-73
2020/12/23 07:56:01;;;;;;;2.75;2.55;;;7.60;57.80;;;;;;5011897;28;20025;-73
2020/12/23 07:58:46;;;;;;;2.67;2.47;;;7.60;58.10;;;;;;5015223;28;20036;-73
2020/12/23 08:01:13;;;;;;;2.50;2.30;;;7.60;57.60;;;;;;5014439;28;20018;-72
2020/12/23 08:03:39;;;;;;;2.17;1.98;;;7.60;57.40;;;;;;5013205;28;20451;-73
2020/12/23 08:06:10;;;;;;;2.45;2.22;;;7.60;57.10;;;;;;5016185;28;20120;-73
2020/12/23 08:08:38;;;;;;;2.83;2.63;;;7.40;57.40;;;;;;5028764;28;20032;-73
2020/12/23 08:11:15;;;;;;;3.08;2.53;;;7.40;57.60;;;;;;5006435;28;20032;-73
2020/12/23 08:13:42;;;;;;;2.33;2.22;;;7.40;57.60;;;;;;5015618;28;20044;-73
2020/12/23 08:16:13;;;;;;;2.60;2.40;;;7.30;57.50;;;;;;5010670;28;20025;-73
2020/12/23 08:18:41;;;;;;;2.80;2.60;;;7.20;57.70;;;;;;5012047;28;20038;-73
2020/12/23 08:21:13;;;;;;;2.75;2.45;;;7.30;57.40;;;;;;5012290;28;20108;-74
2020/12/23 08:23:41;;;;;;;3.20;2.15;;;7.30;57.40;;;;;;5014398;28;20407;-73
2020/12/23 08:26:11;;;;;;;3.05;2.72;;;7.20;57.20;;;;;;5008031;28;20033;-73
2020/12/23 08:28:40;;;;;;;5.90;2.70;;;7.20;57.10;;;;;;5012235;28;20026;-74
2020/12/23 08:31:11;;;;;;;3.10;2.28;;;7.10;57.30;;;;;;5013681;28;20104;-74
2020/12/23 08:33:40;;;;;;;3.17;2.75;;;7.00;57.60;;;;;;5033525;28;20032;-74
2020/12/23 08:36:06;;;;;;;2.20;2.10;;;7.00;57.30;;;;;;5005016;28;20088;-74
2020/12/23 08:38:33;;;;;;;2.50;2.30;;;7.10;57.20;;;;;;5013464;28;20045;-73
2020/12/23 08:41:00;;;;;;;6.80;2.28;;;7.00;57.10;;;;;;5014790;28;20033;-73
2020/12/23 08:43:31;;;;;;;1.80;1.70;;;7.00;57.10;;;;;;5013420;28;20017;-73
2020/12/23 08:46:00;;;;;;;2.50;1.85;;;7.00;56.80;;;;;;5001812;28;20342;-74
2020/12/23 08:48:30;;;;;;;2.42;2.05;;;7.00;56.90;;;;;;5012261;28;20363;-73
2020/12/23 08:51:05;;;;;;;2.13;2.03;;;7.00;56.70;;;;;;5012292;28;20022;-74
2020/12/23 08:53:34;;;;;;;2.35;2.03;;;7.00;56.60;;;;;;5011169;28;20523;-74
2020/12/23 08:56:01;;;;;;;1.90;1.80;;;6.90;57.10;;;;;;5012873;28;20034;-75
2020/12/23 08:58:29;;;;;;;1.88;1.70;;;6.90;57.00;;;;;;5013709;28;20060;-74
2020/12/23 09:01:02;;;;;;;3.05;2.00;;;6.90;56.80;;;;;;5013605;28;20414;-73
2020/12/23 09:03:29;;;;;;;2.30;2.20;;;6.80;57.30;;;;;;5008562;28;20395;-75
2020/12/23 09:05:56;;;;;;;2.25;2.15;;;6.90;57.10;;;;;;5012657;28;20034;-74
2020/12/23 09:08:28;;;;;;;2.15;2.00;;;7.00;56.60;;;;;;5011702;28;20176;-74
2020/12/23 09:10:57;;;;;;;2.58;2.35;;;7.00;56.80;;;;;;5012020;28;20026;-73
2020/12/23 09:13:33;;;;;;;3.10;1.85;;;6.80;56.60;;;;;;5012493;28;20356;-74
2020/12/23 09:16:03;;;;;;;1.83;1.73;;;6.80;57.00;;;;;;5014000;28;20096;-73
2020/12/23 09:18:29;;;;;;;2.08;1.98;;;6.80;57.10;;;;;;5014070;28;20029;-75
2020/12/23 09:21:00;;;;;;;2.20;2.00;;;6.70;57.20;;;;;;5017008;28;20052;-73
2020/12/23 09:23:27;;;;;;;3.03;1.92;;;6.70;57.10;;;;;;5003625;28;20113;-74
2020/12/23 09:25:55;;;;;;;2.13;2.03;;;6.70;57.10;;;;;;5006993;28;20360;-73
2020/12/23 09:28:26;;;;;;;2.45;2.30;;;6.60;57.60;;;;;;5005507;28;20483;-73
2020/12/23 09:31:02;;;;;;;2.38;2.20;;;6.50;57.80;;;;;;5012776;28;20029;-73
2020/12/23 09:33:40;;;;;;;2.20;2.10;;;6.60;57.40;;;;;;5014039;28;20059;-74
2020/12/23 09:36:08;;;;;;;1.67;1.58;;;6.50;57.70;;;;;;5011788;28;20475;-74
2020/12/23 09:38:35;;;;;;;2.00;1.85;;;6.50;57.90;;;;;;5012281;28;20022;-74
2020/12/23 09:41:09;;;;;;;2.25;2.10;;;6.40;57.80;;;;;;5012786;28;20351;-73
2020/12/23 09:43:37;;;;;;;3.47;2.58;;;6.40;57.30;;;;;;5012339;28;20033;-73
2020/12/23 09:46:07;;;;;;;2.00;1.88;;;6.40;57.30;;;;;;5013869;28;20033;-74
2020/12/23 09:48:34;;;;;;;4.10;2.10;;;6.40;57.90;;;;;;5013900;28;20033;-74
2020/12/23 09:51:01;;;;;;;4.68;4.05;;;6.30;58.00;;;;;;5012347;28;20041;-73
2020/12/23 09:53:27;;;;;;;2.10;2.00;;;6.30;57.90;;;;;;5013275;28;20367;-74
2020/12/23 09:55:55;;;;;;;2.47;1.65;;;6.30;57.70;;;;;;4994004;28;20036;-74
2020/12/23 09:58:22;;;;;;;4.05;2.40;;;6.30;58.00;;;;;;5003685;28;20049;-74
2020/12/23 10:00:49;;;;;;;2.78;2.17;;;6.30;57.80;;;;;;5012339;28;20351;-73
2020/12/23 10:03:16;;;;;;;5.35;2.10;;;6.20;57.80;;;;;;5012162;28;20052;-75
2020/12/23 10:05:42;;;;;;;2.40;2.30;;;6.20;57.60;;;;;;5012771;28;20030;-76
2020/12/23 10:08:09;;;;;;;2.72;2.47;;;6.20;58.00;;;;;;5014071;28;20364;-74
2020/12/23 10:10:37;;;;;;;2.15;2.05;;;6.20;57.80;;;;;;5013191;28;20030;-74
2020/12/23 10:13:04;;;;;;;2.20;2.00;;;6.20;57.80;;;;;;5011917;28;20121;-74
2020/12/23 10:15:30;;;;;;;2.38;2.17;;;6.20;57.50;;;;;;5010966;28;20092;-74
2020/12/23 10:17:57;;;;;;;2.08;1.98;;;6.20;57.90;;;;;;5002926;28;20026;-74
2020/12/23 10:20:24;;;;;;;2.28;2.08;;;6.20;57.70;;;;;;5009574;28;20330;-74
2020/12/23 10:22:50;;;;;;;4.30;1.98;;;6.20;57.70;;;;;;5010229;28;20018;-73
2020/12/23 10:25:16;;;;;;;4.53;2.25;;;6.20;57.90;;;;;;5013107;28;20069;-74
2020/12/23 10:27:43;;;;;;;2.72;2.05;;;6.20;57.90;;;;;;5012408;28;20032;-73
2020/12/23 10:30:10;;;;;;;5.15;2.60;;;6.30;57.90;;;;;;5010251;28;20027;-73
2020/12/23 10:32:38;;;;;;;2.97;2.78;;;6.30;57.70;;;;;;5001130;28;20026;-73
2020/12/23 10:35:05;;;;;;;2.13;1.92;;;6.30;57.60;;;;;;5011853;28;20472;-73
2020/12/23 10:37:32;;;;;;;2.03;1.92;;;6.40;57.60;;;;;;5020275;28;20537;-73
2020/12/23 10:39:58;;;;;;;2.20;2.08;;;6.40;57.80;;;;;;5010630;28;20107;-73
2020/12/23 10:42:29;;;;;;;2.65;2.08;;;6.40;57.90;;;;;;5011559;28;20022;-74
2020/12/23 10:44:56;;;;;;;2.60;2.45;;;6.30;58.00;;;;;;5019073;28;20448;-74
2020/12/23 10:47:22;;;;;;;1.90;1.80;;;6.40;57.50;;;;;;5024751;28;20045;-74
2020/12/23 10:49:49;;;;;;;2.45;2.28;;;6.40;57.90;;;;;;5015590;28;20029;-75
2020/12/23 10:52:15;;;;;;;2.55;2.35;;;6.40;58.40;;;;;;5017043;28;20050;-75
2020/12/23 10:54:42;;;;;;;2.53;2.20;;;6.40;58.00;;;;;;5017380;28;20132;-74
2020/12/23 10:57:08;;;;;;;2.08;1.98;;;6.40;57.60;;;;;;5015714;28;20034;-74
2020/12/23 10:59:34;;;;;;;2.20;2.00;;;6.50;57.40;;;;;;5015139;28;20029;-73
2020/12/23 11:02:01;;;;;;;2.25;1.70;;;6.50;56.80;;;;;;5014552;28;20018;-74
2020/12/23 11:04:27;;;;;;;6.25;2.25;;;6.70;56.50;;;;;;5022178;28;20017;-74
2020/12/23 11:06:54;;;;;;;4.75;1.90;;;6.80;55.90;;;;;;5015310;28;20117;-73
2020/12/23 11:09:22;;;;;;;2.10;2.00;;;6.90;56.10;;;;;;5019705;28;20038;-75
2020/12/23 11:11:55;;;;;;;2.25;1.52;;;7.00;55.20;;;;;;5015699;28;20021;-75
2020/12/23 11:14:22;;;;;;;5.95;2.22;;;7.20;54.80;;;;;;5014122;28;20399;-74
2020/12/23 11:16:51;;;;;;;4.57;2.13;;;7.40;54.90;;;;;;5014025;28;20053;-73
2020/12/23 11:19:18;;;;;;;1.98;1.88;;;7.60;55.20;;;;;;5013876;28;20503;-74
2020/12/23 11:21:45;;;;;;;1.63;1.50;;;7.80;54.20;;;;;;5016261;28;20507;-73
2020/12/23 11:24:12;;;;;;;3.53;2.17;;;7.90;53.60;;;;;;5016222;28;20447;-74
2020/12/23 11:26:38;;;;;;;1.80;1.70;;;8.10;53.30;;;;;;5015555;28;20112;-74
2020/12/23 11:29:06;;;;;;;2.38;2.20;;;8.20;53.00;;;;;;5014114;28;20021;-73
2020/12/23 11:31:32;;;;;;;1.92;1.83;;;8.30;53.30;;;;;;5015238;28;20072;-73
2020/12/23 11:33:59;;;;;;;2.95;2.60;;;8.40;53.00;;;;;;5013736;28;20042;-74
2020/12/23 11:36:26;;;;;;;2.80;1.95;;;8.50;52.80;;;;;;5015104;28;20030;-75
2020/12/23 11:38:52;;;;;;;1.75;1.65;;;8.50;51.50;;;;;;5015844;28;20029;-75
2020/12/23 11:41:18;;;;;;;2.17;2.08;;;8.60;52.50;;;;;;5014066;28;20072;-74
2020/12/23 11:43:45;;;;;;;1.90;1.80;;;8.60;50.90;;;;;;5013678;28;20022;-74
2020/12/23 11:46:11;;;;;;;1.95;1.85;;;8.70;50.80;;;;;;5014301;28;20443;-74
2020/12/23 11:48:40;;;;;;;2.83;1.88;;;8.80;54.60;;;;;;5013467;28;20029;-74
2020/12/23 11:51:08;;;;;;;3.80;2.30;;;9.00;52.40;;;;;;5015126;28;20325;-74
2020/12/23 11:53:35;;;;;;;2.00;1.80;;;9.10;51.80;;;;;;5015037;28;20036;-74
2020/12/23 11:56:01;;;;;;;2.15;1.60;;;9.00;50.00;;;;;;5011437;28;20021;-73
2020/12/23 11:58:28;;;;;;;2.80;2.28;;;9.00;51.20;;;;;;5013111;28;20026;-73
2020/12/23 12:00:54;;;;;;;1.80;1.70;;;9.00;53.80;;;;;;5012875;28;20057;-74
2020/12/23 12:03:21;;;;;;;2.40;2.20;;;9.00;51.10;;;;;;5014247;28;20022;-74
2020/12/23 12:05:51;;;;;;;3.97;2.08;;;8.80;50.30;;;;;;5014721;28;20034;-74
2020/12/23 12:08:17;;;;;;;4.90;2.30;;;8.80;48.90;;;;;;5011901;28;20062;-73
2020/12/23 12:10:44;;;;;;;4.75;1.75;;;9.00;52.10;;;;;;5014391;28;20029;-74
2020/12/23 12:13:10;;;;;;;2.88;1.60;;;9.10;50.70;;;;;;5014796;28;20468;-74
2020/12/23 12:15:36;;;;;;;2.20;1.80;;;9.00;50.00;;;;;;5014340;28;20108;-73
2020/12/23 12:18:03;;;;;;;2.30;2.10;;;9.00;50.80;;;;;;5010611;28;20034;-77
2020/12/23 12:20:29;;;;;;;2.33;2.13;;;9.00;51.70;;;;;;5014296;28;20112;-75
2020/12/23 12:22:56;;;;;;;1.90;1.80;;;8.90;50.60;;;;;;5013832;28;20024;-74
2020/12/23 12:25:22;;;;;;;3.75;2.35;;;8.90;50.40;;;;;;5014484;28;20032;-74
2020/12/23 12:27:49;;;;;;;2.38;1.80;;;8.90;50.40;;;;;;5012160;28;20030;-74
2020/12/23 12:30:15;;;;;;;1.77;1.67;;;9.00;51.80;;;;;;5013540;28;20038;-74
2020/12/23 12:32:42;;;;;;;2.97;1.92;;;9.00;49.80;;;;;;5014813;28;20026;-75
2020/12/23 12:35:08;;;;;;;4.72;1.80;;;9.40;48.20;;;;;;5015361;28;20050;-74
2020/12/23 12:37:34;;;;;;;3.50;1.90;;;9.60;48.70;;;;;;5009287;28;20061;-74
2020/12/23 12:40:01;;;;;;;4.38;1.63;;;9.70;49.50;;;;;;5016962;28;20025;-74
2020/12/23 12:42:27;;;;;;;4.28;1.90;;;10.10;45.80;;;;;;5015149;28;20046;-74
2020/12/23 12:44:53;;;;;;;2.42;1.88;;;10.20;46.00;;;;;;5011741;28;20419;-74
2020/12/23 12:47:20;;;;;;;3.38;2.00;;;10.40;43.00;;;;;;5002114;28;20030;-74
2020/12/23 12:49:46;;;;;;;4.38;1.70;;;10.60;43.90;;;;;;5012401;28;20029;-74
2020/12/23 12:52:13;;;;;;;3.92;1.95;;;10.70;43.60;;;;;;5012876;28;20052;-75
2020/12/23 12:54:39;;;;;;;4.38;2.10;;;10.70;43.50;;;;;;5014876;28;20033;-74
2020/12/23 12:57:05;;;;;;;3.00;2.13;;;10.60;46.40;;;;;;5012936;28;20021;-74